Time;durP1;ratioP1;P1;durP2;ratioP2;P2;SDS_P1;SDS_P2;PMS_P1;PMS_P2;Temp;Humidity;BMP_temperature;BMP_pressure;BME280_temperature;BME280_humidity;BME280_pressure;Samples;Min_cycle;Max_cycle;Signal;HPM_P1;HPM_P2
2022/01/15 00:01:12;;;;;;;10.07;3.33;;;25.50;99.90;;;;;;4996422;28;20186;-71
2022/01/15 00:03:39;;;;;;;9.37;3.40;;;25.50;99.90;;;;;;4996269;28;20241;-73
2022/01/15 00:06:07;;;;;;;6.73;2.70;;;25.60;99.90;;;;;;4978739;28;20715;-77
2022/01/15 00:08:34;;;;;;;7.20;3.37;;;25.70;99.90;;;;;;4995238;28;20540;-71
2022/01/15 00:11:01;;;;;;;9.77;2.80;;;25.90;99.90;;;;;;4996706;28;20186;-74
2022/01/15 00:13:31;;;;;;;10.10;3.40;;;25.80;99.90;;;;;;4996139;28;20178;-73
2022/01/15 00:16:06;;;;;;;9.53;3.20;;;25.90;99.90;;;;;;4996191;28;20175;-75
2022/01/15 00:19:03;;;;;;;5.97;2.97;;;26.10;99.90;;;;;;4996115;28;20185;-74
2022/01/15 00:21:30;;;;;;;7.07;2.90;;;26.10;99.90;;;;;;4978581;28;20191;-75
2022/01/15 00:23:58;;;;;;;9.23;3.57;;;26.40;99.90;;;;;;4996019;28;20541;-76
2022/01/15 00:26:25;;;;;;;4.93;2.90;;;26.90;99.90;;;;;;4978512;28;20194;-76
2022/01/15 00:28:52;;;;;;;7.83;3.00;;;27.30;99.90;;;;;;4995841;28;20316;-72
2022/01/15 00:31:20;;;;;;;7.30;3.23;;;27.60;99.90;;;;;;4996010;28;20192;-73
2022/01/15 00:33:47;;;;;;;5.80;2.53;;;27.80;99.90;;;;;;4978315;28;20269;-73
2022/01/15 00:36:16;;;;;;;8.83;3.00;;;28.10;99.90;;;;;;4995293;28;20178;-76
2022/01/15 00:38:44;;;;;;;7.60;2.60;;;28.50;99.90;;;;;;4995584;28;20189;-73
2022/01/15 00:41:11;;;;;;;4.70;2.40;;;28.40;99.90;;;;;;4995639;28;20228;-71
2022/01/15 00:43:40;;;;;;;5.77;2.70;;;28.80;99.90;;;;;;4995450;28;20178;-72
2022/01/15 00:46:07;;;;;;;6.67;2.37;;;29.10;99.90;;;;;;4996873;28;20194;-73
2022/01/15 00:48:35;;;;;;;6.13;2.70;;;29.40;99.90;;;;;;4997093;28;20174;-73
2022/01/15 00:51:02;;;;;;;7.07;2.73;;;29.40;99.90;;;;;;4995572;28;20647;-71
2022/01/15 00:53:29;;;;;;;5.23;2.40;;;28.90;99.90;;;;;;4995347;28;20261;-76
2022/01/15 00:55:57;;;;;;;7.87;2.97;;;29.10;99.90;;;;;;4995454;28;20565;-76
2022/01/15 00:58:24;;;;;;;6.07;2.40;;;29.20;99.90;;;;;;4995516;28;20178;-72
2022/01/15 01:00:51;;;;;;;5.37;2.40;;;29.00;99.90;;;;;;4995402;28;20218;-75
2022/01/15 01:03:19;;;;;;;5.20;2.20;;;28.70;99.90;;;;;;4995238;28;20185;-73
2022/01/15 01:05:46;;;;;;;9.60;3.30;;;28.70;99.90;;;;;;4995288;28;20676;-75
2022/01/15 01:08:14;;;;;;;4.67;2.33;;;28.90;99.90;;;;;;4995222;28;20249;-74
2022/01/15 01:10:58;;;;;;;7.97;2.23;;;29.20;99.90;;;;;;4995051;28;20170;-78
2022/01/15 01:22:17;;;;;;;3.73;2.17;;;30.40;99.90;;;;;;4967993;28;20194;-76
2022/01/15 01:24:23;;;;;;;4.33;1.93;;;30.40;99.90;;;;;;4994882;28;20190;-74
2022/01/15 01:26:57;;;;;;;10.07;2.70;;;30.60;99.90;;;;;;4995180;28;20655;-76
2022/01/15 01:29:34;;;;;;;13.27;2.37;;;30.80;99.90;;;;;;4994786;28;20179;-75
2022/01/15 01:32:08;;;;;;;7.30;2.47;;;30.60;99.90;;;;;;4994720;28;20237;-75
2022/01/15 01:34:39;;;;;;;5.53;2.13;;;30.60;99.90;;;;;;4994756;28;20193;-72
2022/01/15 01:40:06;;;;;;;6.47;2.70;;;30.50;99.90;;;;;;4994487;28;20652;-74
2022/01/15 01:45:11;;;;;;;7.00;2.60;;;31.40;99.90;;;;;;4994500;28;20175;-73
2022/01/15 01:47:41;;;;;;;3.65;1.95;;;31.50;99.90;;;;;;4995118;28;20174;-75
2022/01/15 01:50:11;;;;;;;7.25;2.92;;;31.80;99.90;;;;;;4994380;28;20557;-76
2022/01/15 01:52:39;;;;;;;6.93;2.10;;;31.50;99.90;;;;;;4994437;28;20629;-74
2022/01/15 01:55:08;;;;;;;7.50;2.55;;;31.20;99.90;;;;;;4976878;28;20659;-72
2022/01/15 01:57:36;;;;;;;9.18;2.30;;;31.40;99.90;;;;;;4994188;28;20179;-71
2022/01/15 02:00:06;;;;;;;7.57;2.70;;;31.60;99.90;;;;;;4993907;28;20575;-70
2022/01/15 02:02:33;;;;;;;8.00;2.60;;;31.90;99.90;;;;;;4994414;28;20261;-72
2022/01/15 02:05:01;;;;;;;9.02;2.60;;;32.00;99.90;;;;;;4994071;28;20179;-73
2022/01/15 02:07:29;;;;;;;8.88;2.45;;;31.60;99.90;;;;;;4994304;28;20206;-72
2022/01/15 02:09:58;;;;;;;4.18;2.55;;;31.60;99.90;;;;;;4994009;28;20647;-73
2022/01/15 02:12:25;;;;;;;8.07;2.45;;;31.40;99.90;;;;;;4993899;28;20550;-74
2022/01/15 02:14:53;;;;;;;3.85;2.20;;;31.70;99.90;;;;;;4994177;28;20186;-76
2022/01/15 02:17:21;;;;;;;4.80;2.53;;;32.10;99.90;;;;;;4994057;28;20643;-71
2022/01/15 02:20:11;;;;;;;6.13;2.08;;;33.00;99.90;;;;;;4994210;28;20210;-73
2022/01/15 02:25:23;;;;;;;6.85;2.38;;;32.90;99.90;;;;;;4994164;28;20261;-74
2022/01/15 02:27:51;;;;;;;6.95;1.90;;;32.30;99.90;;;;;;4994180;28;20546;-71
2022/01/15 02:30:18;;;;;;;7.38;2.25;;;31.70;99.90;;;;;;4993174;28;20210;-75
2022/01/15 02:32:45;;;;;;;6.82;2.08;;;31.60;99.90;;;;;;4993880;28;20655;-71
2022/01/15 02:35:14;;;;;;;4.90;2.42;;;31.30;99.90;;;;;;4993900;28;20594;-72
2022/01/15 02:37:41;;;;;;;3.92;2.00;;;31.10;99.90;;;;;;4976045;28;20230;-75
2022/01/15 02:40:11;;;;;;;6.32;2.38;;;31.10;99.90;;;;;;4993776;28;20249;-76
2022/01/15 02:42:38;;;;;;;10.07;2.70;;;30.80;99.90;;;;;;4993662;28;20174;-74
2022/01/15 02:45:08;;;;;;;6.90;2.22;;;30.50;99.90;;;;;;4993968;28;20174;-72
2022/01/15 02:50:22;;;;;;;6.40;2.13;;;30.40;99.90;;;;;;4994048;28;20193;-72
2022/01/15 02:52:50;;;;;;;6.45;2.78;;;30.30;99.90;;;;;;4993741;28;20182;-76
2022/01/15 02:55:17;;;;;;;6.33;2.53;;;30.30;99.90;;;;;;4995300;28;20625;-74
2022/01/15 02:57:44;;;;;;;5.22;1.90;;;30.30;99.90;;;;;;4993811;28;20186;-74
2022/01/15 03:00:12;;;;;;;5.47;1.93;;;30.30;99.90;;;;;;4976147;28;20704;-73
2022/01/15 03:02:39;;;;;;;7.60;2.70;;;30.50;99.90;;;;;;4993623;28;20180;-73
2022/01/15 03:05:08;;;;;;;5.20;1.93;;;30.60;99.90;;;;;;4993793;28;20183;-75
2022/01/15 03:07:36;;;;;;;9.60;2.80;;;30.70;99.90;;;;;;4993384;28;20273;-72
2022/01/15 03:10:05;;;;;;;7.40;2.50;;;30.50;99.90;;;;;;4993437;28;20193;-75
2022/01/15 03:12:32;;;;;;;3.53;2.08;;;30.50;99.90;;;;;;4993436;28;20175;-73
2022/01/15 03:15:02;;;;;;;4.63;2.10;;;30.40;99.90;;;;;;4993501;28;20178;-75
2022/01/15 03:17:29;;;;;;;4.70;2.37;;;30.40;99.90;;;;;;4993282;28;20715;-73
2022/01/15 03:19:56;;;;;;;5.03;2.40;;;30.80;99.90;;;;;;4993364;28;20221;-77
2022/01/15 03:22:24;;;;;;;7.22;2.53;;;31.10;99.90;;;;;;4993393;28;20175;-75
2022/01/15 03:24:51;;;;;;;4.90;2.27;;;31.70;99.90;;;;;;4993385;28;20171;-73
2022/01/15 03:27:23;;;;;;;7.45;1.83;;;32.40;99.90;;;;;;4993344;28;20171;-73
2022/01/15 03:29:52;;;;;;;8.63;1.95;;;32.50;99.90;;;;;;4993452;28;20183;-74
2022/01/15 03:32:20;;;;;;;3.60;2.10;;;32.50;99.90;;;;;;4993343;28;20628;-77
2022/01/15 03:34:50;;;;;;;7.70;2.03;;;32.90;99.90;;;;;;4993521;28;20189;-74
2022/01/15 03:37:18;;;;;;;4.72;2.25;;;32.80;99.90;;;;;;4993046;28;20242;-74
2022/01/15 03:39:46;;;;;;;3.90;1.92;;;32.30;99.90;;;;;;4992815;28;20219;-77
2022/01/15 03:42:13;;;;;;;9.15;2.10;;;32.70;99.90;;;;;;4995138;28;20170;-75
2022/01/15 03:44:43;;;;;;;4.28;1.90;;;33.40;99.90;;;;;;4996881;28;20190;-73
2022/01/15 03:47:11;;;;;;;6.00;1.95;;;34.00;99.90;;;;;;4996733;28;20170;-72
2022/01/15 03:49:39;;;;;;;8.07;2.22;;;34.20;99.90;;;;;;4996729;28;20183;-73
2022/01/15 03:52:08;;;;;;;3.90;2.00;;;34.10;99.90;;;;;;4996711;28;20171;-72
2022/01/15 03:54:36;;;;;;;7.13;2.10;;;33.70;99.90;;;;;;4996633;28;20179;-72
2022/01/15 03:57:04;;;;;;;8.82;2.17;;;32.80;99.90;;;;;;4979249;28;20687;-73
2022/01/15 03:59:33;;;;;;;7.97;2.33;;;32.40;99.90;;;;;;4996386;28;20214;-76
2022/01/15 04:02:00;;;;;;;4.20;2.30;;;32.30;99.90;;;;;;4996686;28;20218;-72
2022/01/15 04:04:27;;;;;;;6.55;2.13;;;32.60;99.90;;;;;;4978858;28;20186;-75
2022/01/15 04:06:55;;;;;;;6.68;1.80;;;33.10;99.90;;;;;;4979332;28;20640;-74
2022/01/15 04:09:22;;;;;;;3.45;1.58;;;33.50;99.90;;;;;;4996330;28;20216;-72
2022/01/15 04:11:49;;;;;;;5.40;1.60;;;34.00;99.90;;;;;;4996479;28;20252;-74
2022/01/15 04:14:17;;;;;;;4.43;1.58;;;33.90;99.90;;;;;;4996147;28;20167;-72
2022/01/15 04:16:44;;;;;;;6.57;1.55;;;34.00;99.90;;;;;;4996215;28;20182;-76
2022/01/15 04:19:15;;;;;;;9.55;1.88;;;33.80;99.90;;;;;;4995959;28;20194;-74
2022/01/15 04:21:42;;;;;;;4.60;1.77;;;34.00;99.90;;;;;;4978643;28;20587;-73
2022/01/15 04:24:09;;;;;;;4.53;1.33;;;34.20;99.90;;;;;;4996102;28;20255;-74
2022/01/15 04:26:37;;;;;;;3.45;1.70;;;34.10;99.90;;;;;;4996146;28;20632;-74
2022/01/15 04:29:06;;;;;;;3.25;1.75;;;33.60;99.90;;;;;;4995798;28;20175;-73
2022/01/15 04:32:08;;;;;;;6.95;2.08;;;33.80;99.90;;;;;;4978426;28;20277;-72
2022/01/15 04:34:30;;;;;;;7.03;1.60;;;34.00;99.90;;;;;;4993883;28;20214;-74
2022/01/15 04:37:06;;;;;;;8.43;2.03;;;33.40;99.90;;;;;;4995980;28;20241;-72
2022/01/15 04:39:33;;;;;;;4.95;1.83;;;33.90;99.90;;;;;;4995850;28;20209;-76
2022/01/15 04:42:01;;;;;;;7.82;1.85;;;33.50;99.90;;;;;;4995772;28;20539;-73
2022/01/15 04:44:28;;;;;;;4.18;1.80;;;33.40;99.90;;;;;;4995702;28;20182;-74
2022/01/15 04:46:55;;;;;;;4.72;1.70;;;32.80;99.90;;;;;;4995841;28;20175;-74
2022/01/15 04:49:23;;;;;;;5.07;1.80;;;32.80;99.90;;;;;;4978137;28;20230;-76
2022/01/15 04:51:50;;;;;;;3.10;1.48;;;33.10;99.90;;;;;;4995776;28;20597;-77
2022/01/15 04:54:17;;;;;;;6.03;1.73;;;33.10;99.90;;;;;;4994903;28;20191;-76
2022/01/15 04:56:45;;;;;;;5.03;1.65;;;33.30;99.90;;;;;;4995633;28;20170;-75
2022/01/15 04:59:12;;;;;;;6.18;1.60;;;33.10;99.90;;;;;;4995167;28;20226;-77
2022/01/15 05:01:39;;;;;;;3.33;1.38;;;32.90;99.90;;;;;;4995469;28;20193;-73
2022/01/15 05:04:07;;;;;;;5.03;2.08;;;32.70;99.90;;;;;;4995500;28;20192;-74
2022/01/15 05:06:35;;;;;;;5.68;2.03;;;32.50;99.90;;;;;;4995363;28;20269;-71
2022/01/15 05:09:06;;;;;;;4.03;1.80;;;32.20;99.90;;;;;;4995124;28;20182;-73
2022/01/15 05:11:49;;;;;;;6.30;1.90;;;32.00;99.90;;;;;;4995109;28;20175;-76
2022/01/15 05:14:18;;;;;;;4.55;1.83;;;32.00;99.90;;;;;;4995324;28;20269;-72
2022/01/15 05:16:45;;;;;;;5.05;1.50;;;31.90;99.90;;;;;;4994977;28;20551;-74
2022/01/15 05:19:13;;;;;;;2.50;1.38;;;31.70;99.90;;;;;;4977607;28;20214;-76
2022/01/15 05:21:40;;;;;;;5.05;2.35;;;31.70;99.90;;;;;;4994937;28;20232;-73
2022/01/15 05:24:08;;;;;;;3.87;1.30;;;31.60;99.90;;;;;;4995051;28;20182;-72
2022/01/15 05:26:36;;;;;;;3.97;1.83;;;31.60;99.90;;;;;;4995159;28;20178;-76
2022/01/15 05:29:03;;;;;;;5.03;1.33;;;31.70;99.90;;;;;;4977327;28;20654;-75
2022/01/15 05:31:31;;;;;;;4.23;1.70;;;31.50;99.90;;;;;;4994925;28;20233;-75
2022/01/15 05:33:58;;;;;;;3.97;1.23;;;31.50;99.90;;;;;;4994643;28;20190;-76
2022/01/15 05:36:25;;;;;;;7.07;1.83;;;31.50;99.90;;;;;;4994253;28;20178;-72
2022/01/15 05:38:53;;;;;;;5.90;1.37;;;31.50;99.90;;;;;;4994513;28;20190;-73
2022/01/15 05:41:20;;;;;;;5.70;1.30;;;31.40;99.90;;;;;;4994672;28;20183;-76
2022/01/15 05:43:47;;;;;;;3.50;1.40;;;31.30;99.90;;;;;;4977230;28;20214;-75
2022/01/15 05:46:15;;;;;;;8.73;1.50;;;31.40;99.90;;;;;;4994502;28;20218;-76
2022/01/15 05:48:42;;;;;;;4.13;1.50;;;31.40;99.90;;;;;;4994710;28;20213;-76
2022/01/15 05:51:10;;;;;;;6.05;1.73;;;31.60;99.90;;;;;;4994154;28;20609;-75
2022/01/15 05:53:37;;;;;;;7.17;2.17;;;31.80;99.90;;;;;;4994472;28;20175;-76
2022/01/15 05:56:04;;;;;;;14.70;2.50;;;31.80;99.90;;;;;;4994274;28;20206;-74
2022/01/15 05:58:32;;;;;;;7.85;2.72;;;31.10;99.90;;;;;;4994816;28;20273;-74
2022/01/15 06:00:59;;;;;;;4.60;2.60;;;30.90;99.90;;;;;;4994936;28;20738;-74
2022/01/15 06:03:26;;;;;;;17.30;2.70;;;30.80;99.90;;;;;;4994305;28;20205;-76
2022/01/15 06:05:54;;;;;;;8.00;2.47;;;30.70;99.90;;;;;;4993136;28;20214;-72
2022/01/15 06:08:21;;;;;;;4.83;2.27;;;30.70;99.90;;;;;;4994205;28;20179;-73
2022/01/15 06:10:48;;;;;;;10.70;2.37;;;30.70;99.90;;;;;;4994127;28;20586;-76
2022/01/15 06:13:16;;;;;;;10.73;2.67;;;30.60;99.90;;;;;;4994113;28;20621;-75
2022/01/15 06:15:43;;;;;;;6.17;2.33;;;30.40;99.90;;;;;;4993842;28;20189;-74
2022/01/15 06:18:10;;;;;;;7.43;2.30;;;30.30;99.90;;;;;;4994179;28;20182;-73
2022/01/15 06:20:38;;;;;;;7.00;2.30;;;30.10;99.90;;;;;;4994178;28;20221;-75
2022/01/15 06:23:05;;;;;;;15.17;2.57;;;30.00;99.90;;;;;;4993612;28;20171;-74
2022/01/15 06:25:34;;;;;;;3.67;1.90;;;29.90;99.90;;;;;;4993962;28;20187;-75
2022/01/15 06:28:01;;;;;;;5.70;2.10;;;29.90;99.90;;;;;;4993781;28;20175;-73
2022/01/15 06:30:28;;;;;;;8.93;2.40;;;29.80;99.90;;;;;;4993810;28;20545;-76
2022/01/15 06:32:56;;;;;;;8.43;2.37;;;29.70;99.90;;;;;;4993646;28;20179;-72
2022/01/15 06:35:23;;;;;;;7.30;2.20;;;29.90;99.90;;;;;;4993931;28;20651;-74
2022/01/15 06:37:52;;;;;;;8.60;2.03;;;30.20;99.90;;;;;;4993398;28;20230;-77
2022/01/15 06:40:19;;;;;;;6.83;2.30;;;30.50;99.90;;;;;;4993655;28;20206;-75
2022/01/15 06:42:46;;;;;;;15.77;2.67;;;30.70;99.90;;;;;;4993653;28;20543;-76
2022/01/15 06:45:14;;;;;;;12.70;2.40;;;31.00;99.90;;;;;;4993997;28;20262;-76
2022/01/15 06:47:41;;;;;;;9.73;2.43;;;31.20;99.90;;;;;;4976794;28;20209;-75
2022/01/15 06:50:09;;;;;;;10.30;2.60;;;31.20;99.90;;;;;;4993727;28;20629;-76
2022/01/15 06:52:38;;;;;;;7.37;2.57;;;31.30;99.90;;;;;;4993776;28;20583;-73
2022/01/15 06:55:08;;;;;;;8.87;2.47;;;31.30;99.90;;;;;;4993888;28;20175;-75
2022/01/15 06:57:36;;;;;;;8.50;2.77;;;31.40;99.90;;;;;;4993141;28;20269;-73
2022/01/15 07:00:06;;;;;;;9.33;2.37;;;31.40;99.90;;;;;;4993565;28;20210;-76
2022/01/15 07:02:33;;;;;;;8.57;2.23;;;31.30;99.90;;;;;;4993166;28;20257;-75
2022/01/15 07:05:01;;;;;;;17.73;2.80;;;31.30;99.90;;;;;;4993793;28;20285;-75
2022/01/15 07:07:28;;;;;;;6.93;2.23;;;31.20;99.90;;;;;;4993454;28;20185;-75
2022/01/15 07:09:55;;;;;;;6.83;2.30;;;31.30;99.90;;;;;;4993580;28;20185;-75
2022/01/15 07:12:23;;;;;;;6.90;2.40;;;31.40;99.90;;;;;;4993609;28;20592;-76
2022/01/15 07:14:50;;;;;;;14.00;3.57;;;31.40;99.90;;;;;;4993526;28;20257;-75
2022/01/15 07:17:17;;;;;;;10.30;2.63;;;31.20;99.90;;;;;;4995480;28;20175;-77
2022/01/15 07:19:45;;;;;;;8.30;2.37;;;31.10;99.90;;;;;;4997089;28;20198;-76
2022/01/15 07:22:12;;;;;;;10.43;2.43;;;30.80;99.90;;;;;;4997626;28;20185;-75
2022/01/15 07:24:40;;;;;;;5.73;2.17;;;31.00;99.90;;;;;;4979751;28;20556;-76
2022/01/15 07:27:07;;;;;;;5.10;1.30;;;31.00;99.90;;;;;;4997147;28;20213;-73
2022/01/15 07:29:37;;;;;;;6.53;2.07;;;30.80;99.90;;;;;;4996986;28;20171;-74
2022/01/15 07:32:05;;;;;;;6.97;1.50;;;30.30;99.90;;;;;;4997134;28;20340;-76
2022/01/15 07:34:33;;;;;;;3.00;1.10;;;30.00;99.90;;;;;;4979380;28;20277;-74
2022/01/15 07:37:00;;;;;;;3.37;1.20;;;30.10;99.90;;;;;;4996675;28;20784;-75
2022/01/15 07:39:27;;;;;;;2.80;1.23;;;29.90;99.90;;;;;;4996754;28;20264;-72
2022/01/15 07:41:56;;;;;;;4.17;1.30;;;30.10;99.90;;;;;;4996935;28;20186;-71
2022/01/15 07:44:23;;;;;;;7.33;1.10;;;30.30;99.90;;;;;;4996681;28;20620;-74
2022/01/15 07:46:51;;;;;;;2.77;1.10;;;30.10;99.90;;;;;;4997342;28;20217;-73
2022/01/15 07:49:18;;;;;;;4.17;1.13;;;29.70;99.90;;;;;;4996602;28;20179;-77
2022/01/15 07:51:46;;;;;;;5.03;1.40;;;29.40;99.90;;;;;;4996816;28;20182;-77
2022/01/15 07:54:13;;;;;;;6.10;1.67;;;29.40;99.90;;;;;;4979236;28;20178;-77
2022/01/15 07:56:40;;;;;;;5.13;1.70;;;29.60;99.90;;;;;;4996858;28;20221;-78
2022/01/15 07:59:08;;;;;;;5.93;1.70;;;29.60;99.90;;;;;;4996546;28;20293;-76
2022/01/15 08:01:35;;;;;;;3.87;1.40;;;29.60;99.90;;;;;;4996722;28;20182;-77
2022/01/15 08:04:05;;;;;;;6.20;1.87;;;29.50;99.90;;;;;;4996456;28;20175;-76
2022/01/15 08:06:33;;;;;;;8.03;2.10;;;29.60;99.90;;;;;;4996546;28;20192;-76
2022/01/15 08:09:00;;;;;;;9.37;2.30;;;29.40;99.90;;;;;;4996358;28;20167;-71
2022/01/15 08:11:27;;;;;;;6.20;1.90;;;29.40;99.90;;;;;;4996496;28;20265;-71
2022/01/15 08:13:55;;;;;;;8.50;2.83;;;29.60;99.90;;;;;;4996320;28;20171;-71
2022/01/15 08:16:22;;;;;;;8.07;2.27;;;29.80;99.90;;;;;;4996169;28;20189;-71
2022/01/15 08:18:49;;;;;;;9.73;4.40;;;29.50;99.90;;;;;;4996249;28;20171;-72
2022/01/15 08:21:17;;;;;;;4.17;1.90;;;29.00;99.90;;;;;;4978648;28;20186;-73
2022/01/15 08:23:44;;;;;;;5.83;2.90;;;28.60;99.90;;;;;;4996531;28;20531;-71
2022/01/15 08:26:11;;;;;;;7.37;2.50;;;28.20;99.90;;;;;;4996518;28;20191;-75
2022/01/15 08:28:39;;;;;;;8.43;2.43;;;28.10;99.90;;;;;;4995170;28;20225;-70
2022/01/15 08:31:07;;;;;;;7.90;1.90;;;27.80;99.90;;;;;;4995891;28;20183;-70
2022/01/15 08:33:35;;;;;;;6.20;2.20;;;27.70;99.90;;;;;;4996072;28;20636;-70
2022/01/15 08:36:02;;;;;;;6.33;1.83;;;27.60;99.90;;;;;;4995719;28;20706;-72
2022/01/15 08:38:29;;;;;;;5.43;1.80;;;27.50;99.90;;;;;;4995790;28;20218;-71
2022/01/15 08:40:57;;;;;;;7.80;1.93;;;27.60;99.90;;;;;;4995604;28;20688;-72
2022/01/15 08:43:25;;;;;;;7.13;1.93;;;27.50;99.90;;;;;;4996013;28;20171;-72
2022/01/15 08:45:52;;;;;;;8.77;2.27;;;27.40;99.90;;;;;;4978438;28;20195;-71
2022/01/15 08:48:20;;;;;;;4.80;2.10;;;27.40;99.90;;;;;;4996131;28;20206;-71
2022/01/15 08:50:50;;;;;;;6.57;1.63;;;27.30;99.90;;;;;;4995746;28;20177;-72
2022/01/15 08:53:18;;;;;;;3.90;1.67;;;27.30;99.90;;;;;;4978260;28;20189;-69
2022/01/15 08:55:46;;;;;;;6.10;1.50;;;27.30;99.90;;;;;;4978025;28;20183;-70
2022/01/15 08:58:14;;;;;;;5.57;1.77;;;27.20;99.90;;;;;;4995464;28;20209;-72
2022/01/15 09:00:42;;;;;;;5.50;2.03;;;27.10;99.90;;;;;;4995351;28;20217;-71
2022/01/15 09:03:10;;;;;;;6.37;1.70;;;27.10;99.90;;;;;;4995497;28;20624;-73
2022/01/15 09:05:39;;;;;;;5.40;1.77;;;27.00;99.90;;;;;;4995729;28;20628;-70
2022/01/15 09:08:08;;;;;;;7.47;2.33;;;27.00;99.90;;;;;;4994927;28;20189;-72
2022/01/15 09:10:41;;;;;;;7.07;2.00;;;27.00;99.90;;;;;;4995226;28;20175;-70
2022/01/15 09:13:12;;;;;;;5.80;1.60;;;27.00;99.90;;;;;;4995341;28;20190;-71
2022/01/15 09:15:40;;;;;;;9.80;2.00;;;27.00;99.90;;;;;;4995162;28;20270;-72
2022/01/15 09:18:07;;;;;;;7.00;2.17;;;27.00;99.90;;;;;;4995282;28;20179;-71
2022/01/15 09:20:35;;;;;;;4.53;1.80;;;27.00;99.90;;;;;;4995021;28;20206;-72
2022/01/15 09:23:03;;;;;;;8.23;1.77;;;27.00;99.90;;;;;;4995105;28;20197;-72
2022/01/15 09:25:31;;;;;;;8.63;2.00;;;27.00;99.90;;;;;;4996566;28;20187;-72
2022/01/15 09:30:45;;;;;;;5.83;2.43;;;27.00;99.90;;;;;;4995078;28;20190;-70
2022/01/15 09:33:13;;;;;;;9.80;2.47;;;27.00;99.90;;;;;;4994892;28;20253;-71
2022/01/15 09:35:40;;;;;;;6.87;2.07;;;26.90;99.90;;;;;;4994918;28;20266;-75
2022/01/15 09:38:09;;;;;;;8.10;2.13;;;26.90;99.90;;;;;;4977453;28;20233;-75
2022/01/15 09:40:40;;;;;;;5.30;2.13;;;26.90;99.90;;;;;;4977692;28;20223;-75
2022/01/15 09:43:08;;;;;;;8.10;2.50;;;26.80;99.90;;;;;;4977360;28;20178;-72
2022/01/15 09:45:37;;;;;;;8.60;3.20;;;26.70;99.90;;;;;;4994738;28;20186;-73
2022/01/15 09:48:07;;;;;;;8.97;3.30;;;26.60;99.90;;;;;;4977148;28;20179;-71
2022/01/15 09:50:42;;;;;;;6.97;2.30;;;26.40;99.90;;;;;;4994510;28;20541;-74
2022/01/15 09:53:13;;;;;;;6.23;2.50;;;26.30;99.90;;;;;;4994661;28;20181;-71
2022/01/15 09:55:41;;;;;;;7.83;3.13;;;26.10;99.90;;;;;;4994525;28;20187;-73
2022/01/15 09:58:08;;;;;;;10.40;5.37;;;26.00;99.90;;;;;;4994452;28;20179;-73
2022/01/15 10:00:36;;;;;;;12.37;5.90;;;25.70;99.90;;;;;;4994289;28;20222;-72
2022/01/15 10:03:04;;;;;;;13.53;6.30;;;25.60;99.90;;;;;;4994978;28;20189;-72
2022/01/15 10:05:32;;;;;;;15.10;6.17;;;25.50;99.90;;;;;;4994645;28;20178;-72
2022/01/15 10:08:09;;;;;;;13.07;4.60;;;25.50;99.90;;;;;;4994476;28;20183;-72
2022/01/15 10:10:39;;;;;;;7.37;3.20;;;25.20;99.90;;;;;;4978172;28;20284;-72
2022/01/15 10:13:17;;;;;;;7.20;3.07;;;25.10;99.90;;;;;;4994034;28;20182;-71
2022/01/15 10:15:47;;;;;;;7.87;3.17;;;25.10;99.90;;;;;;4994210;28;20636;-70
2022/01/15 10:18:28;;;;;;;10.77;3.80;;;25.10;99.90;;;;;;4994346;28;20186;-74
2022/01/15 10:21:13;;;;;;;13.93;4.70;;;25.00;99.90;;;;;;4994116;28;20217;-71
2022/01/15 10:23:50;;;;;;;12.23;5.60;;;24.90;99.90;;;;;;4994104;28;20269;-74
2022/01/15 10:26:27;;;;;;;12.87;5.50;;;24.80;99.90;;;;;;4994259;28;20258;-71
2022/01/15 10:28:57;;;;;;;8.87;4.10;;;24.70;99.90;;;;;;4994353;28;20170;-71
2022/01/15 10:31:28;;;;;;;10.50;3.93;;;24.70;99.90;;;;;;4976486;28;20546;-71
2022/01/15 10:33:57;;;;;;;13.63;3.90;;;24.70;99.90;;;;;;4994295;28;20174;-71
2022/01/15 10:36:27;;;;;;;10.00;4.10;;;24.60;99.90;;;;;;4993570;28;20258;-71
2022/01/15 10:39:11;;;;;;;10.37;3.80;;;24.50;99.90;;;;;;4994393;28;20619;-71
2022/01/15 10:41:39;;;;;;;15.23;3.77;;;24.40;99.90;;;;;;4994046;28;20182;-71
2022/01/15 10:44:37;;;;;;;11.30;4.40;;;24.40;99.90;;;;;;4994319;28;20517;-69
2022/01/15 10:47:13;;;;;;;11.87;5.00;;;24.40;99.90;;;;;;4969644;28;20200;-69
2022/01/15 10:49:42;;;;;;;11.23;5.17;;;24.40;99.90;;;;;;4993806;28;20677;-69
2022/01/15 10:52:17;;;;;;;13.50;5.83;;;24.20;99.90;;;;;;4995375;28;20644;-70
2022/01/15 10:55:06;;;;;;;12.57;5.73;;;24.20;99.90;;;;;;4997400;28;20216;-69
2022/01/15 10:57:37;;;;;;;12.83;5.73;;;24.20;99.90;;;;;;4997334;28;20181;-70
2022/01/15 11:00:14;;;;;;;16.50;5.63;;;24.10;99.90;;;;;;4997751;28;20209;-71
2022/01/15 11:02:48;;;;;;;13.47;6.00;;;24.00;99.90;;;;;;4997500;28;20277;-71
2022/01/15 11:05:26;;;;;;;14.73;5.97;;;24.00;99.90;;;;;;4997530;28;20261;-72
2022/01/15 11:08:13;;;;;;;11.50;5.83;;;23.90;99.90;;;;;;4997672;28;20657;-71
2022/01/15 11:10:43;;;;;;;13.73;5.43;;;23.80;99.90;;;;;;4997656;28;20170;-71
2022/01/15 11:13:12;;;;;;;12.60;5.50;;;23.90;99.90;;;;;;4997436;28;20220;-70
2022/01/15 11:15:46;;;;;;;12.43;5.40;;;23.80;99.90;;;;;;4997357;28;20218;-70
2022/01/15 11:18:20;;;;;;;16.97;6.07;;;23.80;99.90;;;;;;4997396;28;20209;-70
2022/01/15 11:20:54;;;;;;;13.83;4.93;;;23.90;99.90;;;;;;4979917;28;20263;-70
2022/01/15 11:23:24;;;;;;;15.90;5.87;;;23.80;99.90;;;;;;4996954;28;20197;-70
2022/01/15 11:25:55;;;;;;;14.03;4.83;;;23.80;99.90;;;;;;4997114;28;20198;-71
2022/01/15 11:28:25;;;;;;;11.07;4.50;;;23.70;99.90;;;;;;4997158;28;20181;-70
2022/01/15 11:30:59;;;;;;;14.33;4.90;;;23.60;99.90;;;;;;4997596;28;20194;-70
2022/01/15 11:33:30;;;;;;;11.73;5.20;;;23.50;99.90;;;;;;4997326;28;20184;-70
2022/01/15 11:35:59;;;;;;;12.83;6.37;;;23.40;99.90;;;;;;4996743;28;20178;-70
2022/01/15 11:38:48;;;;;;;13.60;5.60;;;23.40;99.90;;;;;;4996596;28;20715;-70
2022/01/15 11:41:27;;;;;;;11.80;5.03;;;23.40;99.90;;;;;;4997222;28;20260;-70
2022/01/15 11:43:59;;;;;;;15.80;4.00;;;23.40;99.90;;;;;;4997077;28;20260;-70
2022/01/15 11:46:43;;;;;;;11.90;4.03;;;23.40;99.90;;;;;;4996493;28;20223;-70
2022/01/15 11:49:30;;;;;;;11.73;4.43;;;23.30;99.90;;;;;;4996919;28;20188;-71
2022/01/15 11:52:19;;;;;;;8.87;3.57;;;23.30;99.90;;;;;;4997053;28;20178;-70
2022/01/15 11:54:52;;;;;;;7.13;4.10;;;23.20;99.90;;;;;;4996582;28;20562;-69
2022/01/15 11:57:50;;;;;;;13.20;4.13;;;23.20;99.90;;;;;;4995585;28;20668;-69
2022/01/15 12:00:42;;;;;;;13.73;5.23;;;23.20;99.90;;;;;;4985310;28;20799;-70
2022/01/15 12:03:12;;;;;;;7.87;4.80;;;23.30;99.90;;;;;;4978159;28;20661;-71
2022/01/15 12:05:45;;;;;;;15.57;5.23;;;23.30;99.90;;;;;;4979047;28;20269;-70
2022/01/15 12:08:13;;;;;;;9.80;3.90;;;23.30;99.90;;;;;;4993449;28;20189;-70
2022/01/15 12:10:51;;;;;;;10.37;3.93;;;23.20;99.90;;;;;;4996074;28;20705;-70
2022/01/15 12:13:25;;;;;;;10.50;4.40;;;23.20;99.90;;;;;;4994132;28;20185;-69
2022/01/15 12:16:15;;;;;;;12.50;4.37;;;23.20;99.90;;;;;;4978357;28;20205;-70
2022/01/15 12:18:49;;;;;;;10.67;3.97;;;23.20;99.90;;;;;;4997888;28;20189;-70
2022/01/15 12:21:44;;;;;;;11.23;3.87;;;23.20;99.90;;;;;;4997344;28;20265;-69
2022/01/15 12:24:35;;;;;;;12.20;4.50;;;23.20;99.90;;;;;;4997064;28;20178;-70
2022/01/15 12:27:05;;;;;;;14.40;4.20;;;23.20;99.90;;;;;;4996470;28;20181;-71
2022/01/15 12:29:32;;;;;;;12.33;4.87;;;23.10;99.90;;;;;;4996306;28;20212;-70
2022/01/15 12:32:00;;;;;;;9.80;3.87;;;23.10;99.90;;;;;;4996134;28;20181;-71
2022/01/15 12:34:28;;;;;;;8.03;4.53;;;23.00;99.90;;;;;;4995790;28;20683;-70
2022/01/15 12:36:57;;;;;;;10.90;4.40;;;23.00;99.90;;;;;;4995772;28;20230;-71
2022/01/15 12:39:38;;;;;;;9.53;4.70;;;22.90;99.90;;;;;;4995878;28;20201;-71
2022/01/15 12:42:08;;;;;;;13.33;4.23;;;22.80;99.90;;;;;;4996162;28;20271;-74
2022/01/15 12:44:47;;;;;;;11.50;4.27;;;22.80;99.90;;;;;;4995454;28;20182;-72
2022/01/15 12:47:17;;;;;;;11.97;3.70;;;22.70;99.90;;;;;;4995848;28;20227;-73
2022/01/15 12:49:48;;;;;;;13.07;5.07;;;22.70;99.90;;;;;;4996086;28;20373;-71
2022/01/15 12:52:20;;;;;;;8.40;4.30;;;22.70;99.90;;;;;;4995652;28;20248;-71
2022/01/15 12:54:50;;;;;;;8.47;4.57;;;22.60;99.90;;;;;;4995414;28;20195;-72
2022/01/15 12:57:47;;;;;;;8.20;4.23;;;22.60;99.90;;;;;;4995373;28;20185;-71
2022/01/15 13:00:30;;;;;;;8.13;3.70;;;22.60;99.90;;;;;;4995248;28;20251;-72
2022/01/15 13:03:06;;;;;;;10.53;4.23;;;22.50;99.90;;;;;;4995976;28;20268;-70
2022/01/15 13:05:39;;;;;;;8.00;3.97;;;22.50;99.90;;;;;;4974917;28;20186;-73
2022/01/15 13:08:15;;;;;;;7.43;4.73;;;22.40;99.90;;;;;;4976292;28;20600;-70
2022/01/15 13:10:51;;;;;;;8.37;4.37;;;22.40;99.90;;;;;;4975877;28;20520;-70
2022/01/15 13:13:33;;;;;;;11.23;4.50;;;22.40;99.90;;;;;;4976050;28;20269;-70
2022/01/15 13:16:05;;;;;;;8.00;4.07;;;22.40;99.90;;;;;;4987019;28;20182;-70
2022/01/15 13:18:35;;;;;;;9.50;4.07;;;22.30;99.90;;;;;;4995026;28;20185;-72
2022/01/15 13:21:06;;;;;;;11.60;4.20;;;22.30;99.90;;;;;;4994788;28;20279;-71
2022/01/15 13:23:37;;;;;;;13.87;4.63;;;22.30;99.90;;;;;;4977580;28;20668;-70